sensor_id;sensor_type;location;lat;lon;timestamp;pressure;altitude;pressure_sealevel;temperature;humidity
78717;BME280;68045;50.042;14.432;2023-08-31T00:03:49;97599.38;;;13.61;88.27
78717;BME280;68045;50.042;14.432;2023-08-31T00:07:50;97594.59;;;13.53;89.44
78717;BME280;68045;50.042;14.432;2023-08-31T00:11:51;97593.53;;;13.59;89.21
78717;BME280;68045;50.042;14.432;2023-08-31T00:15:56;97601.19;;;13.45;90.10
78717;BME280;68045;50.042;14.432;2023-08-31T00:19:57;97611.81;;;13.35;90.80
78717;BME280;68045;50.042;14.432;2023-08-31T00:23:58;97601.47;;;13.34;90.46
78717;BME280;68045;50.042;14.432;2023-08-31T00:27:59;97606.50;;;13.25;90.36
78717;BME280;68045;50.042;14.432;2023-08-31T00:32:05;97604.38;;;13.22;90.27
78717;BME280;68045;50.042;14.432;2023-08-31T00:36:06;97604.66;;;13.26;89.75
78717;BME280;68045;50.042;14.432;2023-08-31T00:40:09;97598.53;;;13.30;88.71
78717;BME280;68045;50.042;14.432;2023-08-31T00:44:12;97604.13;;;13.39;87.69
78717;BME280;68045;50.042;14.432;2023-08-31T00:48:15;97602.25;;;13.29;88.42
78717;BME280;68045;50.042;14.432;2023-08-31T00:52:19;97605.16;;;13.23;89.38
78717;BME280;68045;50.042;14.432;2023-08-31T00:56:22;97596.66;;;13.15;90.12
78717;BME280;68045;50.042;14.432;2023-08-31T01:00:30;97601.63;;;12.97;90.80
78717;BME280;68045;50.042;14.432;2023-08-31T01:12:50;97607.75;;;12.97;90.08
78717;BME280;68045;50.042;14.432;2023-08-31T01:16:55;97621.22;;;12.96;90.21
78717;BME280;68045;50.042;14.432;2023-08-31T01:25:21;97616.47;;;12.92;89.93
78717;BME280;68045;50.042;14.432;2023-08-31T01:29:23;97612.50;;;12.90;90.02
78717;BME280;68045;50.042;14.432;2023-08-31T01:33:24;97617.78;;;12.90;90.47
78717;BME280;68045;50.042;14.432;2023-08-31T01:37:42;97627.56;;;12.84;90.61
78717;BME280;68045;50.042;14.432;2023-08-31T01:41:48;97623.56;;;12.72;91.02
78717;BME280;68045;50.042;14.432;2023-08-31T01:45:51;97612.66;;;12.68;91.17
78717;BME280;68045;50.042;14.432;2023-08-31T01:49:52;97621.13;;;12.65;91.35
78717;BME280;68045;50.042;14.432;2023-08-31T01:53:54;97620.88;;;12.67;90.97
78717;BME280;68045;50.042;14.432;2023-08-31T01:57:54;97620.31;;;12.59;91.06
78717;BME280;68045;50.042;14.432;2023-08-31T02:01:59;97624.28;;;12.57;91.43
78717;BME280;68045;50.042;14.432;2023-08-31T02:06:00;97623.47;;;12.51;91.86
78717;BME280;68045;50.042;14.432;2023-08-31T02:10:02;97627.66;;;12.47;91.73
78717;BME280;68045;50.042;14.432;2023-08-31T02:14:04;97631.69;;;12.55;91.26
78717;BME280;68045;50.042;14.432;2023-08-31T02:18:07;97633.50;;;12.44;92.16
78717;BME280;68045;50.042;14.432;2023-08-31T02:22:08;97625.78;;;12.37;92.85
78717;BME280;68045;50.042;14.432;2023-08-31T02:26:11;97629.75;;;12.35;93.08
78717;BME280;68045;50.042;14.432;2023-08-31T02:30:12;97620.75;;;12.36;92.81
78717;BME280;68045;50.042;14.432;2023-08-31T02:34:13;97612.50;;;12.32;92.54
78717;BME280;68045;50.042;14.432;2023-08-31T02:38:14;97617.81;;;12.32;92.84
78717;BME280;68045;50.042;14.432;2023-08-31T02:42:15;97613.56;;;12.31;92.48
78717;BME280;68045;50.042;14.432;2023-08-31T02:46:16;97626.81;;;12.31;92.82
78717;BME280;68045;50.042;14.432;2023-08-31T02:50:17;97634.47;;;12.33;92.34
78717;BME280;68045;50.042;14.432;2023-08-31T02:54:18;97627.06;;;12.30;92.43
78717;BME280;68045;50.042;14.432;2023-08-31T02:58:20;97630.50;;;12.30;92.29
78717;BME280;68045;50.042;14.432;2023-08-31T03:02:21;97624.94;;;12.32;92.21
78717;BME280;68045;50.042;14.432;2023-08-31T03:06:23;97627.94;;;12.46;91.03
78717;BME280;68045;50.042;14.432;2023-08-31T03:10:23;97633.53;;;12.54;91.48
78717;BME280;68045;50.042;14.432;2023-08-31T03:14:24;97635.38;;;12.54;90.59
78717;BME280;68045;50.042;14.432;2023-08-31T03:18:26;97624.78;;;12.54;90.88
78717;BME280;68045;50.042;14.432;2023-08-31T03:22:28;97632.50;;;12.55;90.81
78717;BME280;68045;50.042;14.432;2023-08-31T03:26:29;97628.00;;;12.61;90.06
78717;BME280;68045;50.042;14.432;2023-08-31T03:30:31;97637.31;;;12.69;89.55
78717;BME280;68045;50.042;14.432;2023-08-31T03:34:32;97638.91;;;12.75;89.67
78717;BME280;68045;50.042;14.432;2023-08-31T03:38:33;97643.88;;;12.56;90.19
78717;BME280;68045;50.042;14.432;2023-08-31T03:42:38;97639.16;;;12.68;89.38
78717;BME280;68045;50.042;14.432;2023-08-31T03:46:40;97635.47;;;12.69;89.52
78717;BME280;68045;50.042;14.432;2023-08-31T03:50:41;97645.03;;;12.80;89.18
78717;BME280;68045;50.042;14.432;2023-08-31T03:54:41;97643.41;;;12.74;89.34
78717;BME280;68045;50.042;14.432;2023-08-31T03:58:42;97645.31;;;12.89;87.91
78717;BME280;68045;50.042;14.432;2023-08-31T04:02:43;97641.38;;;12.97;88.00
78717;BME280;68045;50.042;14.432;2023-08-31T04:06:46;97652.00;;;13.07;87.29
78717;BME280;68045;50.042;14.432;2023-08-31T04:10:47;97656.78;;;13.05;87.83
78717;BME280;68045;50.042;14.432;2023-08-31T04:14:48;97652.28;;;13.05;87.54
78717;BME280;68045;50.042;14.432;2023-08-31T04:18:49;97655.72;;;13.06;87.73
78717;BME280;68045;50.042;14.432;2023-08-31T04:22:52;97671.63;;;13.11;88.03
78717;BME280;68045;50.042;14.432;2023-08-31T04:26:53;97676.38;;;13.09;88.04
78717;BME280;68045;50.042;14.432;2023-08-31T04:30:53;97678.22;;;13.03;88.33
78717;BME280;68045;50.042;14.432;2023-08-31T04:34:54;97690.13;;;13.01;88.32
78717;BME280;68045;50.042;14.432;2023-08-31T04:38:55;97704.47;;;13.05;88.18
78717;BME280;68045;50.042;14.432;2023-08-31T04:42:56;97700.22;;;13.09;88.21
78717;BME280;68045;50.042;14.432;2023-08-31T04:46:57;97710.31;;;13.17;87.85
78717;BME280;68045;50.042;14.432;2023-08-31T04:50:58;97721.78;;;13.28;87.12
78717;BME280;68045;50.042;14.432;2023-08-31T04:55:01;97723.41;;;13.39;86.57
78717;BME280;68045;50.042;14.432;2023-08-31T04:59:04;97725.00;;;13.40;86.83
78717;BME280;68045;50.042;14.432;2023-08-31T05:03:05;97745.44;;;13.50;85.88
78717;BME280;68045;50.042;14.432;2023-08-31T05:07:06;97744.34;;;13.45;86.41
78717;BME280;68045;50.042;14.432;2023-08-31T05:11:08;97753.38;;;13.44;86.53
78717;BME280;68045;50.042;14.432;2023-08-31T05:15:09;97746.75;;;13.42;87.28
78717;BME280;68045;50.042;14.432;2023-08-31T05:19:10;97759.72;;;13.38;87.61
78717;BME280;68045;50.042;14.432;2023-08-31T05:23:11;97753.38;;;13.44;87.42
78717;BME280;68045;50.042;14.432;2023-08-31T05:27:12;97760.25;;;13.45;88.22
78717;BME280;68045;50.042;14.432;2023-08-31T05:31:13;97760.56;;;13.54;87.49
78717;BME280;68045;50.042;14.432;2023-08-31T05:35:13;97771.19;;;13.59;87.10
78717;BME280;68045;50.042;14.432;2023-08-31T05:39:14;97768.78;;;13.58;88.40
78717;BME280;68045;50.042;14.432;2023-08-31T05:43:17;97773.31;;;13.62;87.48
78717;BME280;68045;50.042;14.432;2023-08-31T05:47:18;97781.31;;;13.67;87.92
78717;BME280;68045;50.042;14.432;2023-08-31T05:51:19;97778.91;;;13.81;88.17
78717;BME280;68045;50.042;14.432;2023-08-31T05:55:20;97788.22;;;13.79;88.29
78717;BME280;68045;50.042;14.432;2023-08-31T05:59:21;97799.91;;;13.83;88.61
78717;BME280;68045;50.042;14.432;2023-08-31T06:03:22;97799.59;;;13.79;88.84
78717;BME280;68045;50.042;14.432;2023-08-31T06:07:22;97801.22;;;13.75;89.63
78717;BME280;68045;50.042;14.432;2023-08-31T06:11:23;97814.69;;;13.63;90.90
78717;BME280;68045;50.042;14.432;2023-08-31T06:15:24;97810.47;;;13.67;90.89
78717;BME280;68045;50.042;14.432;2023-08-31T06:19:25;97805.72;;;13.74;90.34
78717;BME280;68045;50.042;14.432;2023-08-31T06:23:26;97827.41;;;13.66;91.20
78717;BME280;68045;50.042;14.432;2023-08-31T06:27:27;97830.91;;;13.77;90.37
78717;BME280;68045;50.042;14.432;2023-08-31T06:31:27;97835.47;;;13.97;89.03
78717;BME280;68045;50.042;14.432;2023-08-31T06:35:28;97839.47;;;14.15;88.47
78717;BME280;68045;50.042;14.432;2023-08-31T06:39:29;97825.44;;;14.19;87.62
78717;BME280;68045;50.042;14.432;2023-08-31T06:43:30;97832.88;;;14.33;86.84
78717;BME280;68045;50.042;14.432;2023-08-31T06:47:32;97830.53;;;14.46;86.98
78717;BME280;68045;50.042;14.432;2023-08-31T06:51:34;97835.28;;;14.65;85.02
78717;BME280;68045;50.042;14.432;2023-08-31T06:55:35;97838.75;;;14.75;85.74
78717;BME280;68045;50.042;14.432;2023-08-31T06:59:36;97832.34;;;14.92;83.83
78717;BME280;68045;50.042;14.432;2023-08-31T07:03:36;97849.06;;;14.92;83.91
78717;BME280;68045;50.042;14.432;2023-08-31T07:07:37;97850.69;;;14.83;83.94
78717;BME280;68045;50.042;14.432;2023-08-31T07:11:39;97848.03;;;14.88;83.23
78717;BME280;68045;50.042;14.432;2023-08-31T07:15:40;97844.53;;;15.18;81.99
78717;BME280;68045;50.042;14.432;2023-08-31T07:19:41;97851.94;;;15.26;81.20
78717;BME280;68045;50.042;14.432;2023-08-31T07:23:42;97854.78;;;15.50;80.00
78717;BME280;68045;50.042;14.432;2023-08-31T07:27:42;97848.72;;;16.04;77.64
78717;BME280;68045;50.042;14.432;2023-08-31T07:31:44;97850.16;;;16.26;74.88
78717;BME280;68045;50.042;14.432;2023-08-31T07:35:46;97863.59;;;16.05;70.46
78717;BME280;68045;50.042;14.432;2023-08-31T07:39:47;97859.13;;;16.40;69.78
78717;BME280;68045;50.042;14.432;2023-08-31T07:43:48;97874.59;;;16.77;66.83
78717;BME280;68045;50.042;14.432;2023-08-31T07:47:50;97869.00;;;16.79;67.60
78717;BME280;68045;50.042;14.432;2023-08-31T07:51:50;97865.59;;;17.02;65.07
78717;BME280;68045;50.042;14.432;2023-08-31T07:55:55;97851.41;;;17.07;63.11
78717;BME280;68045;50.042;14.432;2023-08-31T07:59:57;97866.16;;;17.23;64.18
78717;BME280;68045;50.042;14.432;2023-08-31T08:03:57;97879.88;;;17.11;62.93
78717;BME280;68045;50.042;14.432;2023-08-31T08:07:58;97866.09;;;17.04;62.17
78717;BME280;68045;50.042;14.432;2023-08-31T08:11:59;97896.03;;;17.25;61.46
78717;BME280;68045;50.042;14.432;2023-08-31T08:16:00;97890.03;;;17.62;61.01
78717;BME280;68045;50.042;14.432;2023-08-31T08:20:02;97892.25;;;18.22;57.82
78717;BME280;68045;50.042;14.432;2023-08-31T08:24:04;97900.94;;;18.65;57.58
78717;BME280;68045;50.042;14.432;2023-08-31T08:28:05;97912.00;;;19.56;55.63
78717;BME280;68045;50.042;14.432;2023-08-31T08:32:06;97910.75;;;19.67;54.34
78717;BME280;68045;50.042;14.432;2023-08-31T08:36:09;97911.53;;;19.95;52.26
78717;BME280;68045;50.042;14.432;2023-08-31T08:40:10;97921.22;;;19.50;53.72
78717;BME280;68045;50.042;14.432;2023-08-31T08:44:14;97914.09;;;20.87;50.64
78717;BME280;68045;50.042;14.432;2023-08-31T08:48:17;97909.31;;;21.68;48.07
78717;BME280;68045;50.042;14.432;2023-08-31T08:52:18;97913.84;;;21.28;49.22
78717;BME280;68045;50.042;14.432;2023-08-31T08:56:19;97911.66;;;20.26;48.89
78717;BME280;68045;50.042;14.432;2023-08-31T09:00:20;97908.50;;;20.61;49.61
78717;BME280;68045;50.042;14.432;2023-08-31T09:04:21;97900.53;;;21.45;48.11
78717;BME280;68045;50.042;14.432;2023-08-31T09:08:26;97901.88;;;22.48;44.41
78717;BME280;68045;50.042;14.432;2023-08-31T09:12:28;97906.16;;;23.01;41.26
78717;BME280;68045;50.042;14.432;2023-08-31T09:16:29;97908.03;;;22.31;42.18
78717;BME280;68045;50.042;14.432;2023-08-31T09:20:31;97904.81;;;21.55;44.16
78717;BME280;68045;50.042;14.432;2023-08-31T09:24:40;97918.66;;;21.39;46.37
78717;BME280;68045;50.042;14.432;2023-08-31T09:28:42;97917.09;;;21.38;44.05
78717;BME280;68045;50.042;14.432;2023-08-31T09:32:51;97923.25;;;23.52;39.93
78717;BME280;68045;50.042;14.432;2023-08-31T09:36:52;97925.09;;;28.05;32.90
78717;BME280;68045;50.042;14.432;2023-08-31T09:41:06;97924.16;;;28.33;30.33
78717;BME280;68045;50.042;14.432;2023-08-31T09:45:08;97929.50;;;30.74;25.80
78717;BME280;68045;50.042;14.432;2023-08-31T09:49:11;97942.28;;;28.64;29.12
78717;BME280;68045;50.042;14.432;2023-08-31T09:53:16;97931.94;;;26.80;31.02
78717;BME280;68045;50.042;14.432;2023-08-31T09:57:17;97934.31;;;23.68;35.93
78717;BME280;68045;50.042;14.432;2023-08-31T10:01:18;97934.53;;;20.60;42.08
78717;BME280;68045;50.042;14.432;2023-08-31T10:05:19;97940.91;;;20.50;44.11
78717;BME280;68045;50.042;14.432;2023-08-31T10:09:20;97944.97;;;20.62;44.83
78717;BME280;68045;50.042;14.432;2023-08-31T10:13:22;97953.53;;;20.50;45.77
78717;BME280;68045;50.042;14.432;2023-08-31T10:17:25;97947.88;;;20.38;43.55
78717;BME280;68045;50.042;14.432;2023-08-31T10:21:25;97951.72;;;20.59;43.30
78717;BME280;68045;50.042;14.432;2023-08-31T10:29:50;97967.31;;;21.16;38.55
78717;BME280;68045;50.042;14.432;2023-08-31T10:34:02;97955.31;;;20.41;41.11
78717;BME280;68045;50.042;14.432;2023-08-31T10:38:23;97959.56;;;24.22;34.97
78717;BME280;68045;50.042;14.432;2023-08-31T10:42:25;97957.88;;;29.94;25.81
78717;BME280;68045;50.042;14.432;2023-08-31T10:46:34;97958.00;;;31.17;24.83
78717;BME280;68045;50.042;14.432;2023-08-31T10:50:41;97953.31;;;31.52;24.41
78717;BME280;68045;50.042;14.432;2023-08-31T10:54:42;97956.38;;;32.46;22.34
78717;BME280;68045;50.042;14.432;2023-08-31T10:58:43;97946.88;;;30.66;24.49
78717;BME280;68045;50.042;14.432;2023-08-31T11:02:46;97949.28;;;31.01;22.70
78717;BME280;68045;50.042;14.432;2023-08-31T11:06:48;97946.13;;;30.99;22.97
78717;BME280;68045;50.042;14.432;2023-08-31T11:10:48;97949.66;;;34.55;19.63
78717;BME280;68045;50.042;14.432;2023-08-31T11:14:49;97941.06;;;33.21;19.59
78717;BME280;68045;50.042;14.432;2023-08-31T11:18:50;97945.41;;;33.79;19.53
78717;BME280;68045;50.042;14.432;2023-08-31T11:22:51;97944.03;;;34.84;18.15
78717;BME280;68045;50.042;14.432;2023-08-31T11:26:55;97946.13;;;36.32;16.76
78717;BME280;68045;50.042;14.432;2023-08-31T11:30:56;97953.88;;;32.23;20.69
78717;BME280;68045;50.042;14.432;2023-08-31T11:34:57;97960.91;;;30.98;23.34
78717;BME280;68045;50.042;14.432;2023-08-31T11:38:57;97959.44;;;33.35;21.26
78717;BME280;68045;50.042;14.432;2023-08-31T11:42:58;97955.81;;;32.22;22.35
78717;BME280;68045;50.042;14.432;2023-08-31T11:47:04;97950.72;;;32.17;22.27
78717;BME280;68045;50.042;14.432;2023-08-31T11:51:06;97944.94;;;34.52;19.91
78717;BME280;68045;50.042;14.432;2023-08-31T11:55:15;97951.41;;;35.01;19.20
78717;BME280;68045;50.042;14.432;2023-08-31T11:59:19;97937.22;;;35.17;18.92
78717;BME280;68045;50.042;14.432;2023-08-31T12:03:19;97951.25;;;32.37;20.74
78717;BME280;68045;50.042;14.432;2023-08-31T12:07:21;97956.38;;;31.09;24.09
78717;BME280;68045;50.042;14.432;2023-08-31T12:11:22;97944.53;;;27.60;27.65
78717;BME280;68045;50.042;14.432;2023-08-31T12:15:23;97939.81;;;24.09;32.62
78717;BME280;68045;50.042;14.432;2023-08-31T12:19:31;97942.44;;;23.50;34.64
78717;BME280;68045;50.042;14.432;2023-08-31T12:23:32;97950.16;;;22.96;35.76
78717;BME280;68045;50.042;14.432;2023-08-31T12:27:33;97952.38;;;21.54;38.92
78717;BME280;68045;50.042;14.432;2023-08-31T12:31:36;97955.19;;;21.80;37.92
78717;BME280;68045;50.042;14.432;2023-08-31T12:35:36;97957.47;;;27.51;27.71
78717;BME280;68045;50.042;14.432;2023-08-31T12:39:39;97942.72;;;28.85;25.14
78717;BME280;68045;50.042;14.432;2023-08-31T12:43:43;97943.50;;;31.91;22.58
78717;BME280;68045;50.042;14.432;2023-08-31T12:47:43;97953.53;;;32.32;21.29
78717;BME280;68045;50.042;14.432;2023-08-31T12:51:44;97964.56;;;32.42;20.73
78717;BME280;68045;50.042;14.432;2023-08-31T12:55:45;97953.75;;;29.54;23.27
78717;BME280;68045;50.042;14.432;2023-08-31T12:59:46;97966.88;;;29.71;23.74
78717;BME280;68045;50.042;14.432;2023-08-31T13:03:47;97965.00;;;28.75;24.17
78717;BME280;68045;50.042;14.432;2023-08-31T13:07:48;97949.34;;;28.14;25.17
78717;BME280;68045;50.042;14.432;2023-08-31T13:11:50;97954.28;;;30.99;23.43
78717;BME280;68045;50.042;14.432;2023-08-31T13:15:51;97949.16;;;31.68;22.34
78717;BME280;68045;50.042;14.432;2023-08-31T13:19:53;97945.41;;;29.66;24.40
78717;BME280;68045;50.042;14.432;2023-08-31T13:23:54;97968.19;;;27.91;26.59
78717;BME280;68045;50.042;14.432;2023-08-31T13:27:55;97957.28;;;25.04;30.24
78717;BME280;68045;50.042;14.432;2023-08-31T13:31:55;97980.78;;;24.62;31.42
78717;BME280;68045;50.042;14.432;2023-08-31T13:35:57;97971.63;;;23.48;30.75
78717;BME280;68045;50.042;14.432;2023-08-31T13:40:01;97981.53;;;21.38;35.57
78717;BME280;68045;50.042;14.432;2023-08-31T13:44:05;97988.91;;;20.52;39.32
78717;BME280;68045;50.042;14.432;2023-08-31T13:48:06;97987.78;;;20.67;40.67
78717;BME280;68045;50.042;14.432;2023-08-31T13:52:07;97992.75;;;20.96;39.33
78717;BME280;68045;50.042;14.432;2023-08-31T13:56:10;97973.91;;;22.03;38.21
78717;BME280;68045;50.042;14.432;2023-08-31T14:00:11;97970.81;;;22.27;36.62
78717;BME280;68045;50.042;14.432;2023-08-31T14:04:14;97994.09;;;21.52;36.12
78717;BME280;68045;50.042;14.432;2023-08-31T14:08:15;97987.00;;;21.11;37.79
78717;BME280;68045;50.042;14.432;2023-08-31T14:12:16;97982.84;;;20.82;38.92
78717;BME280;68045;50.042;14.432;2023-08-31T14:16:17;98015.84;;;20.83;39.15
78717;BME280;68045;50.042;14.432;2023-08-31T14:20:18;97995.94;;;20.48;39.33
78717;BME280;68045;50.042;14.432;2023-08-31T14:24:19;97976.78;;;20.77;39.28
78717;BME280;68045;50.042;14.432;2023-08-31T14:28:20;97962.41;;;20.73;39.37
78717;BME280;68045;50.042;14.432;2023-08-31T14:32:21;97979.91;;;20.70;39.65
78717;BME280;68045;50.042;14.432;2023-08-31T14:36:25;98006.97;;;20.05;41.39
78717;BME280;68045;50.042;14.432;2023-08-31T14:40:26;97985.44;;;19.96;41.77
78717;BME280;68045;50.042;14.432;2023-08-31T14:44:27;98005.97;;;19.87;41.90
78717;BME280;68045;50.042;14.432;2023-08-31T14:48:28;97996.53;;;19.76;42.90
78717;BME280;68045;50.042;14.432;2023-08-31T14:52:29;98006.09;;;19.96;43.69
78717;BME280;68045;50.042;14.432;2023-08-31T14:56:30;97972.03;;;20.24;44.19
78717;BME280;68045;50.042;14.432;2023-08-31T15:00:31;97978.28;;;20.33;42.87
78717;BME280;68045;50.042;14.432;2023-08-31T15:04:32;97994.28;;;20.11;43.94
78717;BME280;68045;50.042;14.432;2023-08-31T15:08:38;97990.00;;;20.51;43.21
78717;BME280;68045;50.042;14.432;2023-08-31T15:12:39;97984.13;;;20.35;43.27
78717;BME280;68045;50.042;14.432;2023-08-31T15:16:40;97982.38;;;20.17;42.80
78717;BME280;68045;50.042;14.432;2023-08-31T15:20:41;97990.41;;;20.30;43.59
78717;BME280;68045;50.042;14.432;2023-08-31T15:24:45;97975.91;;;20.18;43.37
78717;BME280;68045;50.042;14.432;2023-08-31T15:28:46;97988.28;;;20.27;42.11
78717;BME280;68045;50.042;14.432;2023-08-31T15:32:47;97977.56;;;20.55;41.57
78717;BME280;68045;50.042;14.432;2023-08-31T15:36:48;97986.63;;;20.45;39.45
78717;BME280;68045;50.042;14.432;2023-08-31T15:40:49;97989.94;;;20.65;40.00
78717;BME280;68045;50.042;14.432;2023-08-31T15:44:50;97983.09;;;20.95;39.53
78717;BME280;68045;50.042;14.432;2023-08-31T15:48:53;97988.84;;;21.02;39.68
78717;BME280;68045;50.042;14.432;2023-08-31T15:52:53;97987.09;;;20.47;40.18
78717;BME280;68045;50.042;14.432;2023-08-31T15:56:56;97986.38;;;20.55;40.58
78717;BME280;68045;50.042;14.432;2023-08-31T16:00:57;97991.69;;;20.47;41.18
78717;BME280;68045;50.042;14.432;2023-08-31T16:05:05;97993.25;;;20.34;41.94
78717;BME280;68045;50.042;14.432;2023-08-31T16:09:07;98007.06;;;20.14;41.12
78717;BME280;68045;50.042;14.432;2023-08-31T16:13:08;97992.78;;;19.91;40.74
78717;BME280;68045;50.042;14.432;2023-08-31T16:17:09;98011.25;;;20.06;41.48
78717;BME280;68045;50.042;14.432;2023-08-31T16:21:10;98004.78;;;20.21;41.45
78717;BME280;68045;50.042;14.432;2023-08-31T16:25:11;98024.63;;;20.06;41.79
78717;BME280;68045;50.042;14.432;2023-08-31T16:29:12;98017.28;;;19.98;41.96
78717;BME280;68045;50.042;14.432;2023-08-31T16:33:13;98026.03;;;19.90;42.00
78717;BME280;68045;50.042;14.432;2023-08-31T16:37:14;98027.19;;;19.84;42.65
78717;BME280;68045;50.042;14.432;2023-08-31T16:41:15;98012.16;;;19.55;42.82
78717;BME280;68045;50.042;14.432;2023-08-31T16:45:16;98025.97;;;19.62;43.35
78717;BME280;68045;50.042;14.432;2023-08-31T16:49:17;98023.22;;;19.67;43.06
78717;BME280;68045;50.042;14.432;2023-08-31T16:53:19;98031.53;;;19.66;43.12
78717;BME280;68045;50.042;14.432;2023-08-31T16:57:20;98030.59;;;19.57;42.91
78717;BME280;68045;50.042;14.432;2023-08-31T17:01:21;98023.88;;;19.27;42.82
78717;BME280;68045;50.042;14.432;2023-08-31T17:05:21;98031.47;;;19.01;43.22
78717;BME280;68045;50.042;14.432;2023-08-31T17:09:22;98019.91;;;19.05;43.75
78717;BME280;68045;50.042;14.432;2023-08-31T17:13:23;98027.16;;;18.86;43.72
78717;BME280;68045;50.042;14.432;2023-08-31T17:17:24;98030.97;;;18.80;44.37
78717;BME280;68045;50.042;14.432;2023-08-31T17:21:28;98032.06;;;18.79;44.91
78717;BME280;68045;50.042;14.432;2023-08-31T17:25:29;98028.78;;;18.63;44.63
78717;BME280;68045;50.042;14.432;2023-08-31T17:29:30;98028.69;;;18.49;44.43
78717;BME280;68045;50.042;14.432;2023-08-31T17:33:31;98032.09;;;18.55;45.24
78717;BME280;68045;50.042;14.432;2023-08-31T17:37:33;98028.69;;;18.49;44.84
78717;BME280;68045;50.042;14.432;2023-08-31T17:41:34;98032.00;;;18.41;45.72
78717;BME280;68045;50.042;14.432;2023-08-31T17:45:36;98031.59;;;18.29;46.22
78717;BME280;68045;50.042;14.432;2023-08-31T17:49:37;98041.44;;;18.09;46.80
78717;BME280;68045;50.042;14.432;2023-08-31T17:53:38;98048.63;;;18.14;46.43
78717;BME280;68045;50.042;14.432;2023-08-31T17:57:38;98055.44;;;18.01;47.46
78717;BME280;68045;50.042;14.432;2023-08-31T18:01:39;98062.47;;;17.92;47.77
78717;BME280;68045;50.042;14.432;2023-08-31T18:05:48;98072.44;;;17.81;49.33
78717;BME280;68045;50.042;14.432;2023-08-31T18:09:50;98073.84;;;17.74;49.06
78717;BME280;68045;50.042;14.432;2023-08-31T18:13:51;98093.94;;;17.61;49.85
78717;BME280;68045;50.042;14.432;2023-08-31T18:17:52;98100.31;;;17.65;50.46
78717;BME280;68045;50.042;14.432;2023-08-31T18:21:53;98101.31;;;17.40;51.20
78717;BME280;68045;50.042;14.432;2023-08-31T18:25:55;98104.34;;;17.28;51.09
78717;BME280;68045;50.042;14.432;2023-08-31T18:29:56;98098.22;;;17.23;52.28
78717;BME280;68045;50.042;14.432;2023-08-31T18:33:58;98108.50;;;17.06;50.87
78717;BME280;68045;50.042;14.432;2023-08-31T18:37:58;98108.75;;;17.04;51.13
78717;BME280;68045;50.042;14.432;2023-08-31T18:41:59;98109.50;;;17.10;50.92
78717;BME280;68045;50.042;14.432;2023-08-31T18:46:02;98113.28;;;17.03;51.20
78717;BME280;68045;50.042;14.432;2023-08-31T18:50:03;98118.91;;;17.02;50.33
78717;BME280;68045;50.042;14.432;2023-08-31T18:54:05;98132.75;;;17.04;50.32
78717;BME280;68045;50.042;14.432;2023-08-31T18:58:06;98131.16;;;16.98;51.53
78717;BME280;68045;50.042;14.432;2023-08-31T19:02:06;98130.16;;;16.89;50.62
78717;BME280;68045;50.042;14.432;2023-08-31T19:06:07;98131.78;;;16.85;52.22
78717;BME280;68045;50.042;14.432;2023-08-31T19:10:09;98135.28;;;16.75;52.06
78717;BME280;68045;50.042;14.432;2023-08-31T19:14:11;98126.53;;;16.59;51.56
78717;BME280;68045;50.042;14.432;2023-08-31T19:18:12;98127.59;;;16.63;51.49
78717;BME280;68045;50.042;14.432;2023-08-31T19:22:13;98130.00;;;16.55;52.58
78717;BME280;68045;50.042;14.432;2023-08-31T19:26:14;98137.50;;;16.42;53.66
78717;BME280;68045;50.042;14.432;2023-08-31T19:30:15;98133.25;;;16.31;53.99
78717;BME280;68045;50.042;14.432;2023-08-31T19:34:16;98140.47;;;16.20;54.46
78717;BME280;68045;50.042;14.432;2023-08-31T19:38:17;98141.28;;;16.21;55.38
78717;BME280;68045;50.042;14.432;2023-08-31T19:42:18;98146.09;;;15.99;55.58
78717;BME280;68045;50.042;14.432;2023-08-31T19:46:19;98146.13;;;15.93;55.70
78717;BME280;68045;50.042;14.432;2023-08-31T19:50:21;98149.03;;;15.82;56.56
78717;BME280;68045;50.042;14.432;2023-08-31T19:54:23;98151.69;;;15.61;57.35
78717;BME280;68045;50.042;14.432;2023-08-31T19:58:24;98150.09;;;15.71;57.74
78717;BME280;68045;50.042;14.432;2023-08-31T20:02:24;98158.31;;;15.54;59.70
78717;BME280;68045;50.042;14.432;2023-08-31T20:06:25;98156.41;;;15.49;60.71
78717;BME280;68045;50.042;14.432;2023-08-31T20:10:26;98170.50;;;15.29;62.42
78717;BME280;68045;50.042;14.432;2023-08-31T20:14:27;98163.78;;;15.01;63.53
78717;BME280;68045;50.042;14.432;2023-08-31T20:18:29;98177.44;;;14.68;64.80
78717;BME280;68045;50.042;14.432;2023-08-31T20:22:30;98169.38;;;14.47;65.95
78717;BME280;68045;50.042;14.432;2023-08-31T20:26:31;98179.94;;;14.42;66.55
78717;BME280;68045;50.042;14.432;2023-08-31T20:30:32;98177.44;;;14.30;66.91
78717;BME280;68045;50.042;14.432;2023-08-31T20:34:33;98193.13;;;14.27;66.88
78717;BME280;68045;50.042;14.432;2023-08-31T20:38:35;98193.59;;;14.19;67.13
78717;BME280;68045;50.042;14.432;2023-08-31T20:42:37;98188.28;;;14.19;67.64
78717;BME280;68045;50.042;14.432;2023-08-31T20:46:38;98200.44;;;14.15;67.90
78717;BME280;68045;50.042;14.432;2023-08-31T20:50:40;98206.44;;;14.00;68.34
78717;BME280;68045;50.042;14.432;2023-08-31T20:54:41;98200.66;;;14.08;68.11
78717;BME280;68045;50.042;14.432;2023-08-31T20:58:42;98205.22;;;14.13;67.84
78717;BME280;68045;50.042;14.432;2023-08-31T21:02:42;98194.28;;;14.04;68.63
78717;BME280;68045;50.042;14.432;2023-08-31T21:06:44;98203.78;;;14.00;68.68
78717;BME280;68045;50.042;14.432;2023-08-31T21:10:46;98200.88;;;14.01;68.70
78717;BME280;68045;50.042;14.432;2023-08-31T21:14:46;98197.09;;;13.92;68.68
78717;BME280;68045;50.042;14.432;2023-08-31T21:18:49;98215.34;;;13.84;68.47
78717;BME280;68045;50.042;14.432;2023-08-31T21:22:50;98204.72;;;13.84;67.74